Time;durP1;ratioP1;P1;durP2;ratioP2;P2;SDS_P1;SDS_P2;PMS_P1;PMS_P2;Temp;Humidity;BMP_temperature;BMP_pressure;BME280_temperature;BME280_humidity;BME280_pressure;Samples;Min_cycle;Max_cycle;Signal;HPM_P1;HPM_P2
2023/02/20 00:02:14;;;;;;;4.40;2.10;;;;;;;1.32;61.92;99512.83;105116;1265;64710;-75
2023/02/20 00:04:43;;;;;;;4.90;1.90;;;;;;;1.32;61.91;99514.89;105598;1268;59658;-75
2023/02/20 00:07:12;;;;;;;4.60;1.90;;;;;;;1.30;61.95;99514.70;104891;1269;65427;-75
2023/02/20 00:09:40;;;;;;;4.60;1.80;;;;;;;1.27;62.02;99518.34;105152;1264;59634;-74
2023/02/20 00:12:10;;;;;;;3.10;1.80;;;;;;;1.25;62.06;99521.38;105217;1267;59837;-74
2023/02/20 00:14:38;;;;;;;3.70;1.80;;;;;;;1.23;62.13;99523.36;105338;1266;65650;-74
2023/02/20 00:17:06;;;;;;;4.50;2.00;;;;;;;1.21;62.19;99526.13;105163;1267;59720;-74
2023/02/20 00:19:40;;;;;;;3.60;1.90;;;;;;;1.20;62.20;99524.64;105223;1267;65578;-74
2023/02/20 00:22:08;;;;;;;3.60;1.90;;;;;;;1.18;62.29;99525.10;105421;1270;59718;-75
2023/02/20 00:24:37;;;;;;;4.70;2.00;;;;;;;1.16;62.37;99529.67;104965;1269;59595;-75
2023/02/20 00:27:05;;;;;;;3.80;1.90;;;;;;;1.14;62.44;99523.99;105049;1267;65909;-74
2023/02/20 00:29:35;;;;;;;5.00;2.10;;;;;;;1.13;62.45;99524.44;105205;1267;59602;-76
2023/02/20 00:32:05;;;;;;;3.90;1.90;;;;;;;1.11;62.65;99523.54;105405;1264;65474;-76
2023/02/20 00:34:33;;;;;;;4.00;2.00;;;;;;;1.09;62.78;99529.16;105599;1260;59675;-75
2023/02/20 00:37:02;;;;;;;2.90;1.70;;;;;;;1.07;62.91;99527.36;105470;1267;59653;-75
2023/02/20 00:39:31;;;;;;;4.20;2.10;;;;;;;1.06;62.99;99522.24;105867;1258;65940;-75
2023/02/20 00:41:59;;;;;;;5.30;2.30;;;;;;;1.04;63.13;99525.64;105688;1262;59717;-74
2023/02/20 00:44:32;;;;;;;7.40;2.30;;;;;;;1.03;63.25;99524.98;105708;1257;65017;-75
2023/02/20 00:47:00;;;;;;;4.20;2.30;;;;;;;1.02;63.28;99525.38;105675;1258;59649;-74
2023/02/20 00:49:28;;;;;;;4.80;2.40;;;;;;;1.01;63.34;99529.44;105871;1256;59601;-74
2023/02/20 00:52:09;;;;;;;6.90;2.40;;;;;;;0.98;63.45;99531.19;105751;1260;65155;-74
2023/02/20 00:54:37;;;;;;;6.00;2.10;;;;;;;0.95;63.49;99531.48;105797;1261;59852;-75
2023/02/20 00:57:05;;;;;;;5.00;2.40;;;;;;;0.94;63.57;99530.51;105792;1257;64533;-74
2023/02/20 00:59:34;;;;;;;5.00;2.40;;;;;;;0.93;63.56;99529.19;105719;1261;59620;-75
2023/02/20 01:02:20;;;;;;;5.20;2.50;;;;;;;0.90;63.52;99528.98;105608;1256;60925;-75
2023/02/20 01:04:50;;;;;;;3.40;2.00;;;;;;;0.89;63.50;99524.23;105563;1258;66057;-76
2023/02/20 01:07:18;;;;;;;3.60;1.80;;;;;;;0.88;63.45;99528.77;105734;1258;61239;-75
2023/02/20 01:09:46;;;;;;;4.90;1.90;;;;;;;0.86;63.55;99529.04;105619;1263;64227;-75
2023/02/20 01:12:15;;;;;;;6.70;2.20;;;;;;;0.83;63.62;99529.88;105793;1257;59641;-74
2023/02/20 01:14:44;;;;;;;5.70;2.20;;;;;;;0.81;63.64;99527.73;105759;1257;59688;-75
2023/02/20 01:17:13;;;;;;;5.60;2.00;;;;;;;0.81;63.53;99525.50;105759;1260;65882;-74
2023/02/20 01:19:43;;;;;;;6.30;2.10;;;;;;;0.79;63.50;99523.02;105690;1264;59750;-76
2023/02/20 01:22:11;;;;;;;4.30;1.80;;;;;;;0.76;63.55;99522.63;105737;1260;64544;-75
2023/02/20 01:24:42;;;;;;;4.80;2.10;;;;;;;0.73;63.62;99525.41;105668;1257;59695;-75
2023/02/20 01:27:11;;;;;;;7.60;2.10;;;;;;;0.70;63.69;99527.98;105758;1260;59539;-75
2023/02/20 01:29:39;;;;;;;3.90;1.70;;;;;;;0.68;63.69;99526.18;105778;1256;64857;-74
2023/02/20 01:32:10;;;;;;;4.90;1.70;;;;;;;0.66;63.72;99522.81;105724;1258;59755;-76
2023/02/20 01:34:41;;;;;;;5.70;1.90;;;;;;;0.65;63.82;99523.55;105685;1258;65753;-76
2023/02/20 01:37:13;;;;;;;4.30;1.90;;;;;;;0.65;63.79;99522.69;105753;1256;59633;-75
2023/02/20 01:39:42;;;;;;;4.00;1.80;;;;;;;0.64;63.74;99524.98;105486;1256;59912;-73
2023/02/20 01:42:12;;;;;;;4.00;1.70;;;;;;;0.63;63.70;99526.42;105422;1257;64887;-75
2023/02/20 01:44:41;;;;;;;3.80;1.90;;;;;;;0.62;63.74;99532.23;105637;1255;59982;-76
2023/02/20 01:47:20;;;;;;;4.60;1.80;;;;;;;0.61;63.73;99530.91;105650;1258;65637;-76
2023/02/20 01:49:59;;;;;;;3.50;1.60;;;;;;;0.59;63.65;99529.25;105687;1261;59702;-75
2023/02/20 01:52:30;;;;;;;4.00;1.60;;;;;;;0.59;63.69;99529.98;105688;1254;59650;-75
2023/02/20 01:55:05;;;;;;;3.50;1.60;;;;;;;0.56;63.74;99529.58;105740;1257;65663;-75
2023/02/20 01:57:39;;;;;;;3.40;1.60;;;;;;;0.53;63.69;99529.91;105645;1262;60321;-75
2023/02/20 02:00:19;;;;;;;5.00;1.80;;;;;;;0.51;63.66;99530.85;105440;1261;64446;-75
2023/02/20 02:02:54;;;;;;;3.80;1.70;;;;;;;0.51;63.68;99532.42;105448;1260;59688;-76
2023/02/20 02:05:23;;;;;;;3.50;1.60;;;;;;;0.50;63.58;99526.21;105654;1257;59694;-75
2023/02/20 02:07:55;;;;;;;4.50;1.70;;;;;;;0.50;63.55;99529.37;105711;1260;65786;-75
2023/02/20 02:10:27;;;;;;;3.40;2.00;;;;;;;0.49;63.53;99528.73;105676;1257;59621;-75
2023/02/20 02:12:57;;;;;;;2.80;1.40;;;;;;;0.47;63.47;99530.54;105575;1254;65571;-76
2023/02/20 02:15:26;;;;;;;4.40;2.00;;;;;;;0.46;63.59;99536.14;109421;1254;57336;-74
2023/02/20 02:18:01;;;;;;;2.60;1.40;;;;;;;0.46;63.47;99538.06;109454;1254;57370;-75
2023/02/20 02:20:48;;;;;;;4.90;1.80;;;;;;;0.45;63.42;99539.82;109359;1254;65083;-74
2023/02/20 02:23:32;;;;;;;4.60;1.60;;;;;;;0.44;63.45;99539.72;109440;1254;59081;-76
2023/02/20 02:26:22;;;;;;;3.60;1.50;;;;;;;0.43;63.46;99539.58;109278;1256;65025;-75
2023/02/20 02:29:01;;;;;;;3.50;1.70;;;;;;;0.43;63.35;99539.61;109389;1256;57376;-74
2023/02/20 02:31:48;;;;;;;4.60;1.70;;;;;;;0.42;63.21;99540.50;109344;1254;57792;-74
2023/02/20 02:34:45;;;;;;;4.70;1.60;;;;;;;0.42;63.24;99540.17;109391;1254;64313;-74
2023/02/20 02:37:32;;;;;;;3.70;1.30;;;;;;;0.43;63.13;99542.38;109245;1254;58154;-73
2023/02/20 02:40:06;;;;;;;4.60;1.60;;;;;;;0.44;63.04;99552.02;109446;1254;64093;-74
2023/02/20 02:42:54;;;;;;;3.90;1.70;;;;;;;0.45;63.05;99554.73;109284;1254;57356;-74
2023/02/20 02:45:48;;;;;;;3.90;1.60;;;;;;;0.43;62.88;99552.73;109374;1256;57438;-75
2023/02/20 02:48:27;;;;;;;4.30;1.50;;;;;;;0.42;62.87;99549.16;109259;1256;65417;-75
2023/02/20 02:50:57;;;;;;;3.10;1.40;;;;;;;0.42;62.82;99548.33;109281;1255;59263;-75
2023/02/20 02:53:26;;;;;;;3.90;1.80;;;;;;;0.41;62.79;99551.31;109110;1257;64011;-75
2023/02/20 02:55:56;;;;;;;4.90;1.80;;;;;;;0.40;62.79;99553.46;109288;1257;57285;-74
2023/02/20 02:58:24;;;;;;;4.80;1.50;;;;;;;0.39;62.75;99558.51;109321;1255;57311;-74
2023/02/20 03:00:56;;;;;;;3.60;1.70;;;;;;;0.39;62.69;99563.02;109307;1257;65333;-74
2023/02/20 03:03:31;;;;;;;4.30;1.80;;;;;;;0.37;62.71;99562.95;109177;1257;58125;-75
2023/02/20 03:06:07;;;;;;;3.70;1.50;;;;;;;0.36;62.74;99563.52;109161;1259;64641;-75
2023/02/20 03:08:55;;;;;;;3.80;1.60;;;;;;;0.35;62.78;99563.06;109227;1255;58205;-75
2023/02/20 03:11:25;;;;;;;2.60;1.40;;;;;;;0.31;62.78;99562.38;109203;1255;58199;-75
2023/02/20 03:17:05;;;;;;;4.60;1.80;;;;;;;0.26;62.88;99566.05;109209;1256;58727;-75
2023/02/20 03:19:36;;;;;;;2.60;1.30;;;;;;;0.27;62.81;99570.89;109046;1257;64750;-75
2023/02/20 03:22:08;;;;;;;4.30;1.70;;;;;;;0.25;62.84;99572.72;109226;1256;58127;-75
2023/02/20 03:24:53;;;;;;;4.10;1.70;;;;;;;0.23;62.87;99574.02;109142;1256;58178;-75
2023/02/20 03:27:41;;;;;;;4.90;1.70;;;;;;;0.22;62.86;99572.01;109212;1256;65020;-75
2023/02/20 03:30:21;;;;;;;3.40;1.60;;;;;;;0.22;62.86;99574.97;109227;1256;59686;-75
2023/02/20 03:44:03;;;;;;;12.50;9.30;;;;;;;0.17;62.80;99574.66;109502;1253;58379;-75
2023/02/20 03:46:32;;;;;;;25.20;16.30;;;;;;;0.13;62.83;99580.76;109284;1254;73781;-75
2023/02/20 03:49:03;;;;;;;73.80;49.50;;;;;;;0.11;62.86;99578.42;109246;1254;58135;-75
2023/02/20 03:51:31;;;;;;;14.00;8.70;;;;;;;0.11;62.85;99574.84;109370;1253;58079;-76
2023/02/20 03:54:06;;;;;;;9.20;5.40;;;;;;;0.10;62.85;99570.55;109439;1254;64902;-75
2023/02/20 03:56:51;;;;;;;9.90;5.30;;;;;;;0.08;62.95;99572.00;109537;1253;58384;-75
2023/02/20 03:59:26;;;;;;;4.60;2.30;;;;;;;0.07;62.89;99571.17;109369;1254;65078;-76
2023/02/20 04:02:03;;;;;;;6.30;2.80;;;;;;;0.07;62.74;99568.94;109335;1253;58119;-74
2023/02/20 04:04:39;;;;;;;3.50;2.10;;;;;;;0.05;62.80;99567.98;109212;1254;58081;-75
2023/02/20 04:07:11;;;;;;;4.20;1.80;;;;;;;0.03;62.78;99564.50;109292;1254;64877;-75
2023/02/20 04:09:43;;;;;;;4.60;1.70;;;;;;;0.00;62.77;99565.81;109419;1253;58682;-77
2023/02/20 04:12:21;;;;;;;18.90;14.10;;;;;;;-0.02;62.74;99561.54;109376;1254;65681;-75
2023/02/20 04:14:50;;;;;;;8.10;5.30;;;;;;;-0.01;62.73;99563.60;109181;1254;58207;-74
2023/02/20 04:17:22;;;;;;;9.10;4.70;;;;;;;-0.03;62.80;99567.34;109443;1254;58028;-75
2023/02/20 04:19:51;;;;;;;5.10;2.60;;;;;;;-0.05;62.75;99572.13;109184;1254;66206;-74
2023/02/20 04:22:23;;;;;;;6.60;2.80;;;;;;;-0.08;62.72;99573.31;109401;1253;59321;-74
2023/02/20 04:25:00;;;;;;;6.20;3.40;;;;;;;-0.10;62.63;99574.60;109445;1253;64982;-75
2023/02/20 04:27:29;;;;;;;4.90;2.10;;;;;;;-0.11;62.70;99575.17;109115;1254;58164;-75
2023/02/20 04:29:58;;;;;;;6.30;2.30;;;;;;;-0.12;62.74;99577.29;109207;1254;58118;-74
2023/02/20 04:32:26;;;;;;;7.40;3.10;;;;;;;-0.14;62.68;99576.20;109227;1253;65938;-74
2023/02/20 04:34:56;;;;;;;4.40;2.50;;;;;;;-0.17;62.54;99575.13;109410;1254;58391;-75
2023/02/20 04:37:25;;;;;;;4.50;2.20;;;;;;;-0.19;62.60;99573.16;109366;1254;65052;-75
2023/02/20 04:39:54;;;;;;;3.00;2.00;;;;;;;-0.21;62.64;99570.64;109366;1254;58162;-76
2023/02/20 04:42:23;;;;;;;3.40;1.90;;;;;;;-0.22;62.62;99571.72;109385;1254;58149;-74
2023/02/20 04:44:51;;;;;;;3.70;1.80;;;;;;;-0.22;62.72;99572.59;109457;1254;65893;-75
2023/02/20 04:47:21;;;;;;;4.30;1.90;;;;;;;-0.22;62.63;99568.45;109432;1254;58516;-75
2023/02/20 04:49:49;;;;;;;3.20;2.00;;;;;;;-0.24;62.82;99570.30;109413;1254;65049;-74
2023/02/20 04:52:23;;;;;;;3.70;2.00;;;;;;;-0.26;62.77;99575.58;109293;1254;58578;-76
2023/02/20 04:54:52;;;;;;;5.10;2.10;;;;;;;-0.29;62.82;99578.79;109481;1254;58100;-75
2023/02/20 04:57:21;;;;;;;4.70;2.30;;;;;;;-0.31;62.78;99577.67;109376;1254;66332;-74
2023/02/20 04:59:49;;;;;;;5.40;2.10;;;;;;;-0.33;62.87;99580.70;109216;1254;59308;-74
2023/02/20 05:02:18;;;;;;;4.10;1.90;;;;;;;-0.33;62.84;99582.29;109468;1254;64787;-75
2023/02/20 05:04:47;;;;;;;3.80;2.00;;;;;;;-0.33;62.83;99585.08;109310;1254;58192;-75
2023/02/20 05:07:16;;;;;;;3.60;2.00;;;;;;;-0.34;62.89;99589.45;109372;1254;58058;-74
2023/02/20 05:09:45;;;;;;;3.50;1.90;;;;;;;-0.35;62.83;99597.80;109229;1254;66372;-75
2023/02/20 05:12:14;;;;;;;3.00;1.40;;;;;;;-0.35;62.79;99600.87;109504;1254;59338;-75
2023/02/20 05:14:43;;;;;;;5.20;1.90;;;;;;;-0.34;62.76;99604.66;109465;1254;64980;-74
2023/02/20 05:17:12;;;;;;;2.70;1.70;;;;;;;-0.34;62.72;99606.91;109425;1254;58096;-74
2023/02/20 05:19:40;;;;;;;4.80;1.80;;;;;;;-0.34;62.72;99607.95;109481;1254;58208;-74
2023/02/20 05:22:18;;;;;;;4.70;2.00;;;;;;;-0.34;62.66;99611.55;109406;1254;66169;-75
2023/02/20 05:24:46;;;;;;;4.10;1.80;;;;;;;-0.33;62.63;99614.98;109389;1254;59162;-75
2023/02/20 05:27:16;;;;;;;5.00;2.20;;;;;;;-0.33;62.60;99614.09;109381;1254;64699;-75
2023/02/20 05:29:51;;;;;;;7.30;5.20;;;;;;;-0.31;62.63;99616.44;109213;1254;58087;-75
2023/02/20 05:32:21;;;;;;;9.10;7.00;;;;;;;-0.30;62.54;99618.80;109212;1254;58038;-75
2023/02/20 05:34:49;;;;;;;8.70;5.10;;;;;;;-0.28;62.53;99623.23;109351;1254;65278;-75
2023/02/20 05:37:18;;;;;;;4.10;2.20;;;;;;;-0.26;62.37;99625.91;109475;1254;59177;-74
2023/02/20 05:39:47;;;;;;;4.70;1.70;;;;;;;-0.24;62.15;99627.55;109341;1254;63885;-75
2023/02/20 05:42:16;;;;;;;4.80;1.70;;;;;;;-0.22;62.12;99630.38;109353;1254;58145;-74
2023/02/20 05:44:48;;;;;;;4.60;2.20;;;;;;;-0.20;62.08;99633.76;109459;1254;58045;-75
2023/02/20 05:47:17;;;;;;;4.80;1.90;;;;;;;-0.19;61.90;99637.33;109436;1255;65513;-74
2023/02/20 05:49:47;;;;;;;4.50;2.90;;;;;;;-0.16;61.96;99640.67;109354;1256;59119;-75
2023/02/20 05:52:15;;;;;;;9.20;3.60;;;;;;;-0.13;61.59;99646.57;109326;1255;64874;-75
2023/02/20 05:54:44;;;;;;;6.30;4.30;;;;;;;-0.10;61.54;99644.52;109425;1256;58087;-75
2023/02/20 05:57:13;;;;;;;5.90;2.90;;;;;;;-0.05;61.48;99644.29;109363;1256;58070;-75
2023/02/20 05:59:43;;;;;;;5.60;2.60;;;;;;;-0.03;61.22;99646.95;109186;1256;65827;-75
2023/02/20 06:02:11;;;;;;;10.30;4.50;;;;;;;0.00;61.13;99649.77;109417;1256;59416;-74
2023/02/20 06:04:40;;;;;;;8.70;4.70;;;;;;;0.04;60.92;99648.71;109439;1255;64019;-75
2023/02/20 06:07:15;;;;;;;11.80;7.90;;;;;;;0.09;60.74;99650.52;109418;1255;58153;-75
2023/02/20 06:09:43;;;;;;;4.90;3.40;;;;;;;0.16;60.62;99650.22;109333;1255;58103;-75
2023/02/20 06:12:12;;;;;;;5.40;3.60;;;;;;;0.22;60.50;99648.00;109378;1259;65953;-75
2023/02/20 06:14:41;;;;;;;3.40;1.50;;;;;;;0.27;59.99;99647.58;109455;1256;59316;-75
2023/02/20 06:17:09;;;;;;;3.50;1.60;;;;;;;0.31;59.70;99646.73;109402;1255;64755;-73
2023/02/20 06:19:37;;;;;;;3.70;1.70;;;;;;;0.35;59.73;99647.17;109396;1254;58107;-75
2023/02/20 06:22:05;;;;;;;3.40;1.60;;;;;;;0.41;59.37;99648.46;109445;1256;58013;-74
2023/02/20 06:24:34;;;;;;;4.50;2.00;;;;;;;0.43;59.03;99649.19;109331;1256;65943;-75
2023/02/20 06:27:05;;;;;;;3.30;1.40;;;;;;;0.43;58.83;99651.79;109186;1255;58212;-74
2023/02/20 06:29:33;;;;;;;1.90;1.40;;;;;;;0.44;58.66;99650.73;109417;1256;65016;-74
2023/02/20 06:32:01;;;;;;;2.90;1.50;;;;;;;0.44;58.52;99652.27;109298;1256;58572;-74
2023/02/20 06:34:32;;;;;;;3.60;1.40;;;;;;;0.47;58.50;99659.41;109338;1256;58174;-74
2023/02/20 06:37:03;;;;;;;2.10;1.20;;;;;;;0.52;58.58;99657.10;109449;1256;66236;-75
2023/02/20 06:39:31;;;;;;;2.50;1.20;;;;;;;0.56;58.43;99660.86;109420;1255;58601;-75
2023/02/20 06:41:59;;;;;;;2.30;1.20;;;;;;;0.58;58.23;99666.17;109224;1255;65018;-74
2023/02/20 06:44:28;;;;;;;5.20;1.40;;;;;;;0.59;58.07;99660.73;109182;1255;58196;-74
2023/02/20 06:46:56;;;;;;;4.50;1.40;;;;;;;0.59;58.06;99662.46;109353;1256;58027;-72
2023/02/20 06:49:24;;;;;;;3.60;1.30;;;;;;;0.61;58.17;99665.15;109350;1256;66108;-73
2023/02/20 06:51:53;;;;;;;2.80;1.20;;;;;;;0.66;58.06;99659.02;109258;1255;58316;-72
2023/02/20 06:54:23;;;;;;;2.80;1.20;;;;;;;0.71;57.81;99658.59;109273;1255;63903;-75
2023/02/20 06:56:51;;;;;;;3.80;1.30;;;;;;;0.75;57.66;99658.73;109345;1255;58155;-72
2023/02/20 06:59:21;;;;;;;2.00;1.10;;;;;;;0.81;57.27;99663.09;109241;1256;58023;-71
2023/02/20 07:01:49;;;;;;;3.90;1.30;;;;;;;0.87;56.86;99657.55;109370;1255;65988;-73
2023/02/20 07:04:19;;;;;;;2.50;1.40;;;;;;;0.94;56.80;99653.06;109366;1255;58288;-73
2023/02/20 07:06:47;;;;;;;7.30;3.70;;;;;;;0.99;56.67;99656.59;109239;1256;65033;-73
2023/02/20 07:09:15;;;;;;;3.30;1.60;;;;;;;1.02;56.20;99656.27;109221;1256;58037;-72
2023/02/20 07:11:44;;;;;;;2.40;1.30;;;;;;;1.01;56.07;99660.30;109342;1255;58194;-72
2023/02/20 07:14:13;;;;;;;3.90;1.90;;;;;;;1.04;56.09;99660.52;109358;1256;66315;-72
2023/02/20 07:16:41;;;;;;;3.40;1.70;;;;;;;1.05;56.04;99664.42;109406;1255;58327;-74
2023/02/20 07:19:13;;;;;;;8.30;1.50;;;;;;;1.08;55.89;99676.06;109350;1257;63972;-74
2023/02/20 07:21:41;;;;;;;23.30;3.90;;;;;;;1.12;55.72;99668.04;109387;1256;58122;-72
2023/02/20 07:24:09;;;;;;;23.00;5.10;;;;;;;1.17;55.78;99663.48;109374;1256;58145;-74
2023/02/20 07:26:38;;;;;;;211.60;21.30;;;;;;;1.24;55.70;99664.31;109365;1255;66124;-73
2023/02/20 07:29:06;;;;;;;35.30;5.20;;;;;;;1.28;55.36;99661.14;109361;1256;59361;-72
2023/02/20 07:31:34;;;;;;;153.10;12.40;;;;;;;1.35;55.19;99656.98;109182;1256;65011;-72
2023/02/20 07:34:03;;;;;;;36.20;4.90;;;;;;;1.46;55.24;99655.15;109320;1255;58086;-72
2023/02/20 07:36:35;;;;;;;5.10;1.40;;;;;;;1.58;54.90;99656.11;109183;1256;58074;-73
2023/02/20 07:39:05;;;;;;;2.60;1.00;;;;;;;1.63;54.41;99656.66;109235;1256;66170;-73
2023/02/20 07:41:36;;;;;;;2.50;1.00;;;;;;;1.66;54.04;99650.30;109286;1256;59431;-73
2023/02/20 07:44:06;;;;;;;7.50;1.20;;;;;;;1.66;53.81;99652.21;109260;1256;64005;-74
2023/02/20 07:46:35;;;;;;;4.50;1.30;;;;;;;1.66;53.51;99650.27;109330;1256;57985;-72
2023/02/20 07:49:04;;;;;;;16.30;2.70;;;;;;;1.68;53.64;99652.09;109266;1256;58167;-73
2023/02/20 07:51:32;;;;;;;13.10;2.60;;;;;;;1.73;53.34;99657.52;109343;1256;64881;-72
2023/02/20 07:54:02;;;;;;;4.10;1.40;;;;;;;1.71;53.01;99650.14;109352;1256;58319;-74
2023/02/20 07:56:30;;;;;;;4.00;1.40;;;;;;;1.67;53.13;99650.91;109190;1256;63916;-74
2023/02/20 07:58:59;;;;;;;3.20;1.30;;;;;;;1.68;53.32;99646.70;109171;1260;58032;-73
2023/02/20 08:01:28;;;;;;;2.80;1.30;;;;;;;1.74;53.62;99651.56;109176;1256;58189;-73
2023/02/20 08:03:57;;;;;;;3.20;1.40;;;;;;;1.84;53.70;99652.09;109121;1259;66195;-73
2023/02/20 08:06:27;;;;;;;4.00;1.60;;;;;;;1.97;53.74;99647.20;109349;1256;58236;-74
2023/02/20 08:08:56;;;;;;;3.70;1.70;;;;;;;2.11;53.24;99652.98;109312;1256;63725;-71
2023/02/20 08:11:24;;;;;;;12.70;1.90;;;;;;;2.19;52.75;99647.70;109320;1256;58180;-72
2023/02/20 08:13:54;;;;;;;5.10;2.30;;;;;;;2.22;52.70;99646.98;109325;1256;58071;-72
2023/02/20 08:16:23;;;;;;;28.90;5.00;;;;;;;2.27;52.35;99647.20;109220;1256;66153;-74
2023/02/20 08:18:52;;;;;;;17.10;2.60;;;;;;;2.29;52.35;99639.29;109367;1257;58232;-72
2023/02/20 08:21:22;;;;;;;6.00;2.30;;;;;;;2.29;51.91;99629.20;109305;1256;65012;-72
2023/02/20 08:23:51;;;;;;;2.30;1.50;;;;;;;2.31;51.99;99624.77;109209;1256;58097;-74
2023/02/20 08:26:20;;;;;;;4.80;1.70;;;;;;;2.42;51.89;99626.05;109203;1256;58026;-73
2023/02/20 08:28:48;;;;;;;3.20;1.70;;;;;;;2.50;51.67;99622.09;109414;1255;66174;-73
2023/02/20 08:31:16;;;;;;;4.60;1.80;;;;;;;2.57;51.61;99625.64;109450;1255;58231;-74
2023/02/20 08:33:59;;;;;;;3.20;1.70;;;;;;;2.71;51.34;99624.33;109419;1256;64388;-73
2023/02/20 08:36:28;;;;;;;3.60;2.00;;;;;;;2.76;50.24;99624.36;109402;1256;58091;-72
2023/02/20 08:38:56;;;;;;;8.30;2.60;;;;;;;2.71;50.15;99626.58;109316;1255;58136;-73
2023/02/20 08:41:25;;;;;;;5.70;3.00;;;;;;;2.71;50.33;99619.47;109176;1256;66181;-72
2023/02/20 08:43:53;;;;;;;17.40;12.20;;;;;;;2.78;50.52;99616.29;109453;1256;58208;-70
2023/02/20 08:46:23;;;;;;;6.00;3.30;;;;;;;2.87;50.60;99615.73;109327;1256;64803;-73
2023/02/20 08:48:55;;;;;;;3.70;1.40;;;;;;;2.98;50.04;99622.36;109145;1257;58178;-72
2023/02/20 08:51:26;;;;;;;4.70;2.40;;;;;;;3.05;50.06;99622.63;109142;1256;58252;-75
2023/02/20 08:53:57;;;;;;;2.60;1.30;;;;;;;3.15;49.57;99620.78;109137;1256;65901;-75
2023/02/20 08:56:30;;;;;;;2.30;1.10;;;;;;;3.22;48.88;99613.61;109241;1256;58248;-76
2023/02/20 08:59:01;;;;;;;6.80;1.50;;;;;;;3.23;48.63;99618.45;109200;1257;64764;-76
2023/02/20 09:01:32;;;;;;;1.60;1.00;;;;;;;3.21;48.32;99624.10;109208;1257;58105;-73
2023/02/20 09:04:07;;;;;;;4.00;1.40;;;;;;;3.22;48.47;99620.59;109153;1257;58081;-73
2023/02/20 09:06:58;;;;;;;61.10;6.60;;;;;;;3.27;48.14;99618.18;109258;1256;65173;-74
2023/02/20 09:09:29;;;;;;;27.10;3.80;;;;;;;3.29;47.95;99613.54;109211;1256;58202;-76
2023/02/20 09:12:02;;;;;;;3.70;1.50;;;;;;;3.35;48.16;99616.98;109183;1257;64005;-75
2023/02/20 09:14:34;;;;;;;3.00;1.40;;;;;;;3.39;47.75;99619.34;109190;1256;58171;-72
2023/02/20 09:17:09;;;;;;;3.10;1.40;;;;;;;3.36;47.44;99613.25;109164;1256;58201;-74
2023/02/20 09:19:42;;;;;;;3.70;1.60;;;;;;;3.36;47.90;99608.73;109130;1257;66446;-73
2023/02/20 09:22:15;;;;;;;3.80;1.50;;;;;;;3.52;48.17;99602.48;109144;1257;58298;-74
2023/02/20 09:24:47;;;;;;;2.30;1.20;;;;;;;3.75;47.65;99600.67;109204;1257;65190;-70
2023/02/20 09:27:19;;;;;;;3.50;1.30;;;;;;;3.88;46.42;99605.96;109096;1257;58142;-72
2023/02/20 09:29:49;;;;;;;2.30;1.00;;;;;;;3.82;45.83;99611.95;109080;1257;58129;-69
2023/02/20 09:32:26;;;;;;;4.10;1.20;;;;;;;3.67;45.82;99614.43;109159;1257;64901;-68
2023/02/20 09:35:23;;;;;;;3.00;1.30;;;;;;;3.55;46.16;99619.02;109137;1257;58150;-70
2023/02/20 09:37:54;;;;;;;3.20;1.20;;;;;;;3.51;46.16;99611.48;109060;1257;65037;-70
2023/02/20 09:40:29;;;;;;;2.60;1.10;;;;;;;3.48;46.13;99606.45;109190;1257;58123;-71
2023/02/20 09:43:29;;;;;;;3.40;1.10;;;;;;;3.45;46.00;99602.09;109096;1257;58228;-71
2023/02/20 09:53:44;;;;;;;6.50;2.20;;;;;;;3.80;45.83;99583.14;102612;1299;601042;-70
2023/02/20 09:56:17;;;;;;;3.60;1.90;;;;;;;3.81;45.46;99595.27;104830;1273;59247;-69
2023/02/20 09:58:58;;;;;;;4.20;2.40;;;;;;;3.81;45.23;99585.52;104764;1267;59391;-70
2023/02/20 10:01:26;;;;;;;3.10;2.10;;;;;;;3.82;45.11;99583.01;104836;1267;64221;-67
2023/02/20 10:04:01;;;;;;;3.40;1.60;;;;;;;3.89;45.28;99585.38;104848;1268;59809;-67
2023/02/20 10:06:34;;;;;;;1.90;0.90;;;;;;;4.01;45.24;99577.62;104685;1270;156328;-68
2023/02/20 10:09:03;;;;;;;6.90;1.30;;;;;;;4.07;44.45;99580.16;104848;1266;59307;-67
2023/02/20 10:11:41;;;;;;;1.70;1.00;;;;;;;4.10;44.36;99573.74;104945;1267;59365;-68
2023/02/20 10:14:22;;;;;;;2.00;1.00;;;;;;;4.22;44.33;99563.35;104940;1269;65156;-67
2023/02/20 10:17:01;;;;;;;3.30;1.30;;;;;;;4.34;43.83;99560.64;104998;1269;60252;-67
2023/02/20 10:19:46;;;;;;;2.50;1.00;;;;;;;4.38;43.33;99560.70;104944;1264;65547;-67
2023/02/20 10:22:19;;;;;;;3.10;1.30;;;;;;;4.35;43.31;99559.85;105113;1267;59749;-68
2023/02/20 10:24:56;;;;;;;2.40;1.30;;;;;;;4.34;43.37;99549.45;104910;1264;59772;-67
2023/02/20 10:27:40;;;;;;;3.20;1.20;;;;;;;4.36;43.24;99537.30;104890;1270;66083;-69
2023/02/20 10:30:11;;;;;;;3.70;1.00;;;;;;;4.47;42.93;99547.36;104957;1269;59939;-68
2023/02/20 10:33:03;;;;;;;2.60;1.10;;;;;;;4.59;42.37;99538.50;104833;1270;65258;-69
2023/02/20 10:35:38;;;;;;;2.90;1.40;;;;;;;4.58;42.20;99543.27;105206;1268;59626;-71
2023/02/20 10:38:10;;;;;;;1.60;1.00;;;;;;;4.53;42.22;99538.57;105521;1258;59551;-68
2023/02/20 10:40:41;;;;;;;3.10;1.10;;;;;;;4.48;42.50;99537.90;105575;1257;64619;-70
2023/02/20 10:43:11;;;;;;;3.10;1.20;;;;;;;4.44;42.23;99540.73;105550;1257;59638;-70
2023/02/20 10:46:03;;;;;;;2.80;1.10;;;;;;;4.35;42.12;99539.79;105522;1258;65301;-69
2023/02/20 10:48:32;;;;;;;3.50;1.50;;;;;;;4.25;42.65;99536.27;105510;1262;59826;-70
2023/02/20 10:51:23;;;;;;;2.10;1.20;;;;;;;4.27;42.79;99530.94;105462;1257;59702;-70
2023/02/20 10:54:11;;;;;;;24.20;16.70;;;;;;;4.36;42.99;99528.56;105335;1258;66000;-69
2023/02/20 10:56:51;;;;;;;8.80;1.70;;;;;;;4.60;42.79;99539.32;105302;1262;60546;-69
2023/02/20 10:59:30;;;;;;;3.70;1.50;;;;;;;4.85;42.42;99528.89;105187;1257;65436;-67
2023/02/20 11:02:00;;;;;;;2.40;1.40;;;;;;;5.09;42.42;99524.42;105356;1260;59632;-69
2023/02/20 11:04:34;;;;;;;4.60;1.30;;;;;;;5.33;42.14;99527.97;105405;1257;59701;-68
2023/02/20 11:07:13;;;;;;;3.30;1.60;;;;;;;5.49;41.80;99530.48;105385;1257;64969;-68
2023/02/20 11:09:42;;;;;;;4.90;1.80;;;;;;;5.50;41.05;99532.34;105338;1257;59749;-70
2023/02/20 11:12:29;;;;;;;4.60;2.00;;;;;;;5.39;41.04;99530.84;105540;1257;65486;-68
2023/02/20 11:15:04;;;;;;;3.10;1.60;;;;;;;5.31;41.44;99530.91;105505;1257;59711;-68
2023/02/20 11:17:37;;;;;;;2.40;1.10;;;;;;;5.30;41.52;99530.75;105529;1258;59874;-68
2023/02/20 11:20:32;;;;;;;1.90;1.00;;;;;;;5.34;41.04;99531.55;105545;1257;64632;-68
2023/02/20 11:23:01;;;;;;;3.50;1.50;;;;;;;5.30;40.48;99530.80;105533;1262;60292;-68
2023/02/20 11:25:32;;;;;;;3.00;1.70;;;;;;;5.17;40.81;99532.27;105588;1262;64599;-68
2023/02/20 11:28:10;;;;;;;3.40;1.20;;;;;;;5.14;40.97;99528.95;105269;1263;59603;-69
2023/02/20 11:30:43;;;;;;;2.50;1.20;;;;;;;5.13;41.30;99530.75;105406;1257;59616;-68
2023/02/20 11:33:23;;;;;;;3.50;1.20;;;;;;;5.21;41.52;99524.64;105080;1260;64817;-69
2023/02/20 11:35:58;;;;;;;3.00;1.20;;;;;;;5.37;41.44;99521.52;105029;1259;59537;-69
2023/02/20 11:38:29;;;;;;;2.30;1.30;;;;;;;5.55;41.40;99520.46;105256;1263;65511;-69
2023/02/20 11:41:00;;;;;;;6.80;1.60;;;;;;;5.65;40.62;99524.06;105198;1258;59814;-69
2023/02/20 11:43:36;;;;;;;91.20;5.70;;;;;;;5.67;40.75;99525.12;105248;1257;59544;-69
2023/02/20 11:46:21;;;;;;;4.60;2.80;;;;;;;5.60;39.64;99525.11;105358;1258;64716;-68
2023/02/20 11:48:53;;;;;;;4.20;1.60;;;;;;;5.39;39.49;99520.34;105306;1264;59758;-68
2023/02/20 11:51:43;;;;;;;3.80;1.50;;;;;;;5.38;40.20;99519.55;105551;1257;65737;-68
2023/02/20 11:54:24;;;;;;;2.80;1.40;;;;;;;5.63;40.25;99517.24;105249;1260;59823;-68
2023/02/20 11:56:53;;;;;;;4.40;1.30;;;;;;;5.91;39.59;99517.64;105381;1260;59542;-68
2023/02/20 11:59:38;;;;;;;3.80;1.10;;;;;;;6.15;38.54;99510.47;105632;1258;65980;-68
2023/02/20 12:02:16;;;;;;;3.60;1.30;;;;;;;6.25;38.18;99499.73;105537;1259;59503;-68
2023/02/20 12:05:03;;;;;;;7.00;1.60;;;;;;;6.33;38.19;99502.98;105510;1256;65619;-68
2023/02/20 12:07:56;;;;;;;3.40;1.20;;;;;;;6.39;37.96;99493.75;105467;1259;59734;-68
2023/02/20 12:10:46;;;;;;;2.50;1.40;;;;;;;6.26;37.43;99497.34;105438;1256;59645;-69
2023/02/20 12:13:15;;;;;;;6.10;1.50;;;;;;;6.04;37.97;99486.06;105552;1257;65830;-69
2023/02/20 12:16:06;;;;;;;4.90;1.80;;;;;;;5.95;38.37;99493.95;105488;1254;59835;-70
2023/02/20 12:18:48;;;;;;;5.90;2.00;;;;;;;5.84;38.58;99496.81;105253;1256;65645;-71
2023/02/20 12:21:42;;;;;;;3.80;1.80;;;;;;;5.70;38.92;99500.08;105651;1262;60010;-70